createdAt,value
2023-12-16T00:01:58.702Z,15.70
2023-12-16T00:07:26.989Z,13.13
2023-12-16T00:12:48.493Z,11.27
2023-12-16T00:18:10.388Z,10.35
2023-12-16T00:23:31.914Z,13.63
2023-12-16T00:28:53.212Z,12.85
2023-12-16T00:34:14.377Z,8.00
2023-12-16T00:39:35.877Z,9.60
2023-12-16T00:45:00.869Z,12.00
2023-12-16T00:50:22.100Z,6.97
2023-12-16T00:55:43.410Z,8.52
2023-12-16T01:01:04.959Z,11.48
2023-12-16T01:06:26.456Z,8.13
2023-12-16T01:11:47.945Z,10.75
2023-12-16T01:17:09.290Z,12.38
2023-12-16T01:22:30.489Z,15.45
2023-12-16T01:27:51.882Z,10.95
2023-12-16T01:33:13.110Z,8.30
2023-12-16T01:38:34.329Z,8.90
2023-12-16T01:43:55.559Z,11.02
2023-12-16T01:49:16.858Z,10.35
2023-12-16T01:54:40.329Z,8.73
2023-12-16T02:00:01.938Z,6.20
2023-12-16T02:05:23.156Z,12.80
2023-12-16T02:10:45.177Z,8.93
2023-12-16T02:16:07.626Z,11.32
2023-12-16T02:21:28.984Z,9.18
2023-12-16T02:26:50.212Z,15.98
2023-12-16T02:32:11.440Z,15.00
2023-12-16T02:37:32.667Z,13.95
2023-12-16T02:42:54.251Z,12.98
2023-12-16T02:48:15.627Z,14.15
2023-12-16T02:53:37.096Z,11.98
2023-12-16T02:58:58.447Z,14.00
2023-12-16T03:04:19.639Z,19.80
2023-12-16T03:09:41.045Z,10.70
2023-12-16T03:15:02.831Z,12.88
2023-12-16T03:20:24.373Z,11.60
2023-12-16T03:25:45.797Z,12.02
2023-12-16T03:31:07.198Z,11.20
2023-12-16T03:36:28.564Z,7.47
2023-12-16T03:41:49.853Z,11.07
2023-12-16T03:47:11.450Z,10.07
2023-12-16T03:52:32.901Z,9.63
2023-12-16T03:57:54.102Z,13.75
2023-12-16T04:03:15.739Z,12.90
2023-12-16T04:08:37.194Z,11.98
2023-12-16T04:13:58.421Z,10.95
2023-12-16T04:19:20.237Z,13.70
2023-12-16T04:24:41.646Z,8.48
2023-12-16T04:30:03.196Z,8.35
2023-12-16T04:35:24.407Z,16.02
2023-12-16T04:40:45.554Z,14.80
2023-12-16T04:46:07.402Z,13.93
2023-12-16T04:51:28.730Z,9.23
2023-12-16T04:56:50.022Z,13.57
2023-12-16T05:02:11.482Z,12.25
2023-12-16T05:07:33.122Z,17.77
2023-12-16T05:12:55.818Z,6.90
2023-12-16T05:18:17.105Z,15.68
2023-12-16T05:23:38.984Z,15.35
2023-12-16T05:29:00.386Z,13.48
2023-12-16T05:34:21.650Z,8.95
2023-12-16T05:39:43.171Z,11.55
2023-12-16T05:45:05.102Z,8.18
2023-12-16T05:50:26.309Z,14.48
2023-12-16T05:55:47.783Z,17.88
2023-12-16T06:01:09.257Z,10.60
2023-12-16T06:06:30.820Z,13.10
2023-12-16T06:11:52.522Z,8.52
2023-12-16T06:17:13.926Z,13.60
2023-12-16T06:22:35.482Z,13.93
2023-12-16T06:27:57.142Z,19.25
2023-12-16T06:33:18.701Z,12.50
2023-12-16T06:38:40.209Z,13.65
2023-12-16T06:44:01.401Z,16.75
2023-12-16T06:49:22.735Z,16.08
2023-12-16T06:54:44.201Z,13.38
2023-12-16T07:00:06.295Z,15.40
2023-12-16T07:05:28.060Z,16.98
2023-12-16T07:10:49.195Z,17.80
2023-12-16T07:16:11.234Z,14.63
2023-12-16T07:21:32.844Z,19.65
2023-12-16T07:26:54.174Z,13.25
2023-12-16T07:32:15.874Z,15.57
2023-12-16T07:37:37.573Z,15.30
2023-12-16T07:42:59.197Z,17.63
2023-12-16T07:48:20.614Z,19.95
2023-12-16T07:53:42.097Z,16.00
2023-12-16T07:59:03.347Z,18.25
2023-12-16T08:04:24.645Z,23.65
2023-12-16T08:09:46.163Z,14.88
2023-12-16T08:15:07.968Z,13.80
2023-12-16T08:20:29.481Z,18.98
2023-12-16T08:25:50.683Z,15.68
2023-12-16T08:31:12.039Z,15.77
2023-12-16T08:36:33.517Z,17.00
2023-12-16T08:41:54.728Z,19.10
2023-12-16T08:47:16.036Z,18.00
2023-12-16T08:52:37.704Z,33.97
2023-12-16T08:57:58.894Z,20.30
2023-12-16T09:03:20.336Z,20.80
2023-12-16T09:08:41.881Z,17.38
2023-12-16T09:14:03.052Z,23.40
2023-12-16T09:19:24.355Z,17.25
2023-12-16T09:24:45.695Z,20.15
2023-12-16T09:30:07.884Z,21.48
2023-12-16T09:35:29.128Z,22.92
2023-12-16T09:40:50.341Z,16.65
2023-12-16T09:46:11.684Z,24.35
2023-12-16T09:51:33.389Z,24.95
2023-12-16T09:56:57.293Z,24.67
2023-12-16T10:02:28.177Z,24.63
2023-12-16T10:07:49.675Z,26.83
2023-12-16T10:13:11.455Z,22.15
2023-12-16T10:18:33.043Z,23.25
2023-12-16T10:23:57.538Z,30.33
2023-12-16T10:29:20.255Z,29.40
2023-12-16T10:34:41.916Z,29.92
2023-12-16T10:40:03.916Z,30.58
2023-12-16T10:45:25.390Z,36.60
2023-12-16T10:50:49.495Z,31.45
2023-12-16T10:56:25.542Z,27.70
2023-12-16T11:01:52.425Z,32.45
2023-12-16T11:07:18.366Z,32.08
2023-12-16T11:12:41.403Z,33.40
2023-12-16T11:18:15.738Z,33.42
2023-12-16T11:23:46.210Z,31.20
2023-12-16T11:29:07.272Z,41.05
2023-12-16T11:34:47.074Z,37.38
2023-12-16T11:40:09.417Z,30.40
2023-12-16T11:45:39.047Z,34.40
2023-12-16T11:51:00.480Z,36.08
2023-12-16T11:56:21.812Z,33.95
2023-12-16T12:01:43.111Z,32.78
2023-12-16T12:07:05.157Z,30.30
2023-12-16T12:12:26.492Z,31.63
2023-12-16T12:17:48.214Z,26.77
2023-12-16T12:23:09.644Z,27.50
2023-12-16T12:28:30.875Z,31.00
2023-12-16T12:33:54.618Z,31.05
2023-12-16T12:39:19.420Z,27.52
2023-12-16T12:44:40.717Z,29.80
2023-12-16T12:50:02.350Z,25.02
2023-12-16T12:55:23.545Z,22.98
2023-12-16T13:00:45.176Z,23.25
2023-12-16T13:06:08.371Z,29.25
2023-12-16T13:11:30.426Z,25.17
2023-12-16T13:16:51.945Z,21.98
2023-12-16T13:22:13.453Z,18.05
2023-12-16T13:27:35.023Z,20.15
2023-12-16T13:32:56.608Z,21.10
2023-12-16T13:38:17.962Z,23.63
2023-12-16T13:43:39.320Z,21.95
2023-12-16T13:49:03.114Z,21.48
2023-12-16T13:54:25.729Z,23.65
2023-12-16T13:59:47.191Z,24.63
2023-12-16T14:05:08.859Z,19.73
2023-12-16T14:10:30.851Z,25.02
2023-12-16T14:15:52.042Z,28.70
2023-12-16T14:21:13.279Z,23.05
2023-12-16T14:26:34.681Z,22.10
2023-12-16T14:31:56.387Z,23.88
2023-12-16T14:37:17.908Z,17.67
2023-12-16T14:42:39.677Z,16.70
2023-12-16T14:48:01.406Z,19.75
2023-12-16T14:53:22.783Z,15.93
2023-12-16T14:58:43.963Z,15.23
2023-12-16T15:04:05.409Z,16.85
2023-12-16T15:09:27.397Z,18.00
2023-12-16T15:14:49.021Z,18.08
2023-12-16T15:20:10.984Z,19.17
2023-12-16T15:25:32.279Z,23.23
2023-12-16T15:30:53.557Z,20.58
2023-12-16T15:36:15.311Z,18.67
2023-12-16T15:41:36.969Z,18.42
2023-12-16T15:46:58.476Z,24.88
2023-12-16T15:52:20.157Z,20.25
2023-12-16T15:57:41.626Z,22.92
2023-12-16T16:03:02.888Z,28.08
2023-12-16T16:08:24.532Z,24.83
2023-12-16T16:13:45.742Z,28.13
2023-12-16T16:19:07.294Z,26.45
2023-12-16T16:24:28.733Z,32.40
2023-12-16T16:29:49.982Z,27.73
2023-12-16T16:35:11.360Z,35.90
2023-12-16T16:40:33.062Z,33.05
2023-12-16T16:45:54.691Z,29.45
2023-12-16T16:51:16.345Z,33.65
2023-12-16T16:56:37.959Z,35.42
2023-12-16T17:01:59.355Z,33.42
2023-12-16T17:07:20.820Z,36.08
2023-12-16T17:12:41.980Z,29.05
2023-12-16T17:18:03.595Z,35.63
2023-12-16T17:23:24.955Z,32.50
2023-12-16T17:28:46.434Z,33.60
2023-12-16T17:34:07.839Z,32.92
2023-12-16T17:39:29.741Z,31.70
2023-12-16T17:44:51.498Z,30.95
2023-12-16T17:50:12.814Z,30.65
2023-12-16T17:55:34.363Z,29.50
2023-12-16T18:00:55.754Z,29.85
2023-12-16T18:06:17.395Z,37.63
2023-12-16T18:11:39.015Z,33.85
2023-12-16T18:17:00.541Z,29.52
2023-12-16T18:22:21.849Z,34.85
2023-12-16T18:27:43.017Z,35.90
2023-12-16T18:33:04.698Z,32.28
2023-12-16T18:38:26.124Z,36.58
2023-12-16T18:43:47.731Z,33.92
2023-12-16T18:49:09.234Z,38.05
2023-12-16T18:54:30.519Z,38.15
2023-12-16T18:59:52.706Z,40.95
2023-12-16T19:05:14.914Z,45.42
2023-12-16T19:10:36.570Z,41.05
2023-12-16T19:15:58.036Z,40.00
2023-12-16T19:21:19.370Z,39.95
2023-12-16T19:26:41.102Z,40.47
2023-12-16T19:32:02.547Z,41.83
2023-12-16T19:37:23.938Z,41.83
2023-12-16T19:42:45.424Z,47.47
2023-12-16T19:48:06.914Z,43.40
2023-12-16T19:53:28.652Z,41.28
2023-12-16T19:58:49.921Z,37.95
2023-12-16T20:04:11.937Z,40.65
2023-12-16T20:09:33.364Z,36.78
2023-12-16T20:14:54.548Z,38.08
2023-12-16T20:20:16.112Z,37.78
2023-12-16T20:25:37.566Z,28.63
2023-12-16T20:30:58.879Z,31.02
2023-12-16T20:36:20.572Z,33.03
2023-12-16T20:41:42.077Z,29.02
2023-12-16T20:47:03.643Z,28.45
2023-12-16T20:52:24.848Z,28.10
2023-12-16T20:57:46.468Z,24.67
2023-12-16T21:03:07.984Z,22.33
2023-12-16T21:08:29.468Z,26.98
2023-12-16T21:13:50.939Z,27.48
2023-12-16T21:19:12.427Z,21.00
2023-12-16T21:24:34.179Z,27.40
2023-12-16T21:29:55.668Z,23.08
2023-12-16T21:35:17.306Z,21.63
2023-12-16T21:40:38.793Z,21.63
2023-12-16T21:46:00.135Z,22.75
2023-12-16T21:51:21.515Z,22.95
2023-12-16T21:56:43.107Z,20.92
2023-12-16T22:02:04.766Z,24.58
2023-12-16T22:07:26.278Z,22.40
2023-12-16T22:12:47.544Z,25.92
2023-12-16T22:18:09.163Z,20.50
2023-12-16T22:23:30.947Z,25.67
2023-12-16T22:28:52.215Z,20.45
2023-12-16T22:34:13.631Z,16.58
2023-12-16T22:39:35.210Z,19.02
2023-12-16T22:44:56.433Z,17.50
2023-12-16T22:50:18.351Z,17.85
2023-12-16T22:55:39.644Z,14.63
2023-12-16T23:01:00.969Z,15.63
2023-12-16T23:06:22.634Z,18.90
2023-12-16T23:11:44.074Z,15.73
2023-12-16T23:17:05.442Z,11.73
2023-12-16T23:22:26.617Z,13.60
2023-12-16T23:27:47.785Z,12.27
2023-12-16T23:33:08.980Z,13.75
2023-12-16T23:38:30.636Z,12.00
2023-12-16T23:43:51.695Z,11.80
2023-12-16T23:49:15.013Z,12.00
2023-12-16T23:54:36.394Z,11.63
2023-12-16T23:59:57.592Z,15.85
